Página principal
METAR-TAF:

METAR-TAF

Aeroportos :

Aeroporto Internacional de Ivato

Antananarivo, Madagáscar

latitude: 18-48S, longitude: 047-29E, altura: 1279 m

Observação actual do tempo

O boletim foi feito há 32 minutos, às 02:30 UTC
Vento 4 kt de es-sudeste
Temperatura 10°C
Humidade 93%
Pressão 1022 hPa
Visibilidade 10 km ou mais
Poucas nuvensa uma altura de 1700 ft

METAR: FMMI 240230Z 11004KT 9999 FEW017 10/09 Q1022 NOSIG

Hora: 06:02 (03:02 UTC)

Previsão

O boletim foi feito há 4 horas e 2 minutos, às 23:00 UTC
Previsão válida de 24 às 00 UTC a 25 às 06 UTC
Vento 6 kt de es-sudeste
Visibilidade 10 km ou mais
Poucas nuvensa uma altura de 700 ft
Nuvens dispersasa uma altura de 2000 ft
Probabilidade 30%
de 24 às 01 UTC a 24 às 06 UTC
Visibilidade: 1500 m
Nuvens fragmentadasa uma altura de 600 ft
neblina

TAF: FMMI 232300Z 2400/2506 12006KT 9999 FEW007 SCT020 PROB30 2401/2406 1500 BR BKN006

Observações e previsões do tempo de mais de 4000 aeroportos (mensagens METAR e TAF).

As estações disponíveis são os pontos amarelos e vermelhos sobre o mapa.

Mova o rato sobre o mapa para ver o nome da estação.

Depois clique no ponto para visualizar as observações e previsões meteorológicas.

Para alterar o mapa : clique nos botões verdes com uma cruz preta para aumentar o zoom; no botão verde com uma pitada de zoom; ou nas setas verdes para mapas adjacentes.


METAR-TAF: